Mandalay International Airport

Airport
ICAO code: 
VYMD
IATA Code: 
MDL
Summary
ICAO Region: 
APAC
Territory: 
Location: 
Tada-U, Mandalay Region
Serving: 
Mandalay
Elevation: 
299 ft
Coordinates: 
Aerial View: 
21° 56' 27.033" N, 96° 5' 23.54" E
Metar
Observation
VYMD 202330Z 00000KT BR 5000 FEW020 14/12 Q1008
Station
MANDALAY
Date/Time
2022-01-20 23:30:00
Wind direction
Wind speed
00 kts
Lowest cloud amount
few clouds
Temperature
14°C
Dew point
12°C
Humidity
87%
QNH
1008 hPa
Weather condition
mist

Mandalay International Airport, located 35 km south of Mandalay in Tada-U, Myanmar.

Climatology

Tropical Savanna climate (Köppen climate classification Aw)

Runways

Designator Length Width Surface Rops
17/35 4268 61 CON Yes/Yes
Airport map: 
Aerial View: 

SKYbrary Partners:

Safety knowledge contributed by: